Time;durP1;ratioP1;P1;durP2;ratioP2;P2;SDS_P1;SDS_P2;PMS_P1;PMS_P2;Temp;Humidity;BMP_temperature;BMP_pressure;BME280_temperature;BME280_humidity;BME280_pressure;Samples;Min_cycle;Max_cycle;Signal;HPM_P1;HPM_P2
2023/06/30 00:01:27;;;;;;;4.35;2.25;;;;;;;19.53;61.17;101047.63;4976223;28;20090;-56
2023/06/30 00:03:54;;;;;;;6.43;2.97;;;;;;;19.48;59.61;101042.97;4976305;28;20038;-56
2023/06/30 00:06:20;;;;;;;3.22;2.40;;;;;;;19.52;61.04;101032.44;4976185;28;20031;-56
2023/06/30 00:08:48;;;;;;;7.68;2.70;;;;;;;19.27;60.65;101035.78;4976450;28;20034;-57
2023/06/30 00:11:16;;;;;;;4.90;2.75;;;;;;;19.38;61.18;101012.25;4976076;28;20538;-57
2023/06/30 00:13:43;;;;;;;6.50;2.90;;;;;;;19.68;60.52;101020.63;4976051;28;20054;-57
2023/06/30 00:16:10;;;;;;;5.22;2.85;;;;;;;19.46;60.28;101015.28;4976045;28;20086;-57
2023/06/30 00:18:36;;;;;;;6.22;3.28;;;;;;;19.44;60.13;101019.38;4975900;28;20018;-57
2023/06/30 00:21:03;;;;;;;6.40;2.97;;;;;;;19.23;61.47;101024.63;4975998;28;20364;-57
2023/06/30 00:23:29;;;;;;;6.75;3.40;;;;;;;18.98;62.21;101018.97;4975856;28;20054;-57
2023/06/30 00:25:55;;;;;;;8.15;3.47;;;;;;;19.17;62.27;101012.09;4975849;28;20114;-57
2023/06/30 00:28:22;;;;;;;7.88;4.18;;;;;;;18.81;62.94;101024.50;4975796;28;20026;-57
2023/06/30 00:30:48;;;;;;;10.10;3.55;;;;;;;18.79;63.37;101012.28;4975646;28;20113;-57
2023/06/30 00:33:14;;;;;;;11.38;4.07;;;;;;;18.48;63.58;101015.44;4975859;28;20123;-57
2023/06/30 00:35:40;;;;;;;8.13;3.95;;;;;;;18.30;64.95;101020.41;4976063;28;20085;-57
2023/06/30 00:38:07;;;;;;;9.35;4.20;;;;;;;18.10;65.58;101032.63;4975825;28;20376;-57
2023/06/30 00:40:33;;;;;;;9.20;4.35;;;;;;;17.71;67.34;101029.06;4974850;28;20498;-57
2023/06/30 00:43:00;;;;;;;12.88;4.00;;;;;;;17.80;67.71;101032.19;4975812;28;20062;-57
2023/06/30 00:45:27;;;;;;;9.88;4.32;;;;;;;17.73;67.68;101026.97;4975288;28;20093;-57
2023/06/30 00:47:53;;;;;;;8.20;3.88;;;;;;;18.02;67.13;101022.22;4975439;28;20031;-57
2023/06/30 00:50:20;;;;;;;8.98;4.43;;;;;;;18.18;65.92;101020.53;4975440;28;20154;-57
2023/06/30 00:52:49;;;;;;;9.02;4.50;;;;;;;17.62;66.81;101025.97;4975387;28;20030;-57
2023/06/30 00:55:16;;;;;;;8.90;4.38;;;;;;;17.55;67.42;101025.31;4975050;28;20019;-57
2023/06/30 00:57:43;;;;;;;8.57;4.15;;;;;;;17.21;69.15;101026.38;4975315;28;20053;-58
2023/06/30 01:00:12;;;;;;;9.15;4.70;;;;;;;17.21;69.09;101024.50;4975525;28;20080;-57
2023/06/30 01:03:01;;;;;;;9.20;5.30;;;;;;;16.94;70.38;101032.44;4975206;28;20027;-57
2023/06/30 01:06:15;;;;;;;10.27;4.75;;;;;;;17.10;69.65;101023.53;4975007;28;20093;-57
2023/06/30 01:08:56;;;;;;;13.07;5.88;;;;;;;16.83;69.57;101017.91;4968575;28;20034;-58
2023/06/30 01:11:24;;;;;;;13.38;5.43;;;;;;;16.56;70.45;101023.06;4958596;28;20118;-58
2023/06/30 01:13:53;;;;;;;14.80;6.35;;;;;;;16.25;71.11;101023.50;4957741;28;20475;-57
2023/06/30 01:16:21;;;;;;;8.82;5.22;;;;;;;16.38;71.72;101020.56;4975133;28;20031;-57
2023/06/30 01:18:52;;;;;;;13.77;5.82;;;;;;;16.24;71.75;101020.00;4974667;28;20033;-57
2023/06/30 01:21:22;;;;;;;13.80;5.20;;;;;;;16.15;72.29;101018.72;4974735;28;20015;-57
2023/06/30 01:24:05;;;;;;;17.90;6.22;;;;;;;16.11;72.99;101022.97;4974860;28;20058;-57
2023/06/30 01:26:34;;;;;;;9.38;5.35;;;;;;;15.94;73.29;101024.75;4974831;28;20027;-58
2023/06/30 01:29:03;;;;;;;16.92;6.20;;;;;;;15.98;73.42;101024.03;4974673;28;20047;-57
2023/06/30 01:31:31;;;;;;;11.30;5.72;;;;;;;15.83;73.36;101019.13;4974651;28;20106;-57
2023/06/30 01:33:59;;;;;;;16.10;5.45;;;;;;;16.04;72.97;101028.47;4974947;28;20023;-57
2023/06/30 01:36:26;;;;;;;18.80;6.68;;;;;;;15.65;73.77;101026.50;4974703;28;20114;-57
2023/06/30 01:38:52;;;;;;;14.10;6.43;;;;;;;15.77;74.30;101024.66;4974657;28;20027;-57
2023/06/30 01:41:24;;;;;;;15.65;6.20;;;;;;;15.73;74.04;101018.91;4974499;28;20019;-58
2023/06/30 01:43:51;;;;;;;15.05;5.85;;;;;;;15.75;74.36;101027.56;4957021;28;20404;-58
2023/06/30 01:46:18;;;;;;;12.40;5.72;;;;;;;15.74;74.11;101025.13;4974400;28;20081;-58
2023/06/30 01:48:46;;;;;;;13.52;6.30;;;;;;;15.72;74.17;101025.38;4974831;28;20031;-58
2023/06/30 01:51:13;;;;;;;14.63;6.57;;;;;;;15.59;74.74;101028.25;4974612;28;20114;-57
2023/06/30 01:53:40;;;;;;;16.23;7.38;;;;;;;15.37;75.99;101011.81;4974255;28;20023;-57
2023/06/30 01:56:06;;;;;;;20.55;7.75;;;;;;;15.04;77.51;101018.56;4974524;28;20101;-58
2023/06/30 01:58:32;;;;;;;15.80;7.38;;;;;;;15.24;77.03;101020.97;4974417;28;20125;-57
2023/06/30 02:00:59;;;;;;;20.20;7.65;;;;;;;14.90;77.47;101019.00;4974490;28;20142;-58
2023/06/30 02:03:25;;;;;;;17.63;6.70;;;;;;;14.86;78.01;101026.72;4974293;28;20070;-57
2023/06/30 02:05:51;;;;;;;22.92;7.93;;;;;;;14.82;78.12;101019.31;4974210;28;20027;-57
2023/06/30 02:08:17;;;;;;;16.45;7.30;;;;;;;14.64;79.57;101020.19;4974166;28;20027;-57
2023/06/30 02:10:44;;;;;;;17.58;7.45;;;;;;;14.64;79.82;101023.72;4974230;28;20476;-57
2023/06/30 02:13:10;;;;;;;17.38;6.85;;;;;;;14.78;79.18;101024.38;4974206;28;20026;-57
2023/06/30 02:15:36;;;;;;;16.23;7.00;;;;;;;14.68;79.39;101022.22;4974273;28;20035;-57
2023/06/30 02:18:05;;;;;;;23.60;8.35;;;;;;;14.58;79.59;101026.50;4974927;28;20030;-57
2023/06/30 02:20:32;;;;;;;19.10;7.57;;;;;;;14.23;81.50;101030.63;4973968;28;20026;-55
2023/06/30 02:22:58;;;;;;;15.45;6.60;;;;;;;14.33;81.13;101024.72;4974295;28;20436;-56
2023/06/30 02:25:24;;;;;;;17.95;6.40;;;;;;;14.47;80.95;101020.84;4974325;28;20031;-55
2023/06/30 02:27:52;;;;;;;17.30;6.72;;;;;;;14.52;80.24;101018.28;4957077;28;20030;-55
2023/06/30 02:30:19;;;;;;;15.95;6.30;;;;;;;14.30;81.34;101017.09;4974256;28;20503;-55
2023/06/30 02:32:45;;;;;;;18.17;6.93;;;;;;;14.31;81.76;101021.41;4974037;28;20034;-55
2023/06/30 02:35:12;;;;;;;12.70;6.80;;;;;;;13.99;82.67;101037.75;4974039;28;20033;-56
2023/06/30 02:37:39;;;;;;;17.10;6.30;;;;;;;14.03;83.12;101029.22;4973921;28;20034;-56
2023/06/30 02:40:06;;;;;;;20.42;6.93;;;;;;;13.98;83.20;101033.41;4973982;28;20472;-56
2023/06/30 02:42:33;;;;;;;21.88;8.10;;;;;;;13.82;84.65;101043.91;4973825;28;20031;-56
2023/06/30 02:44:59;;;;;;;19.10;7.60;;;;;;;13.67;85.67;101034.34;4973949;28;20075;-56
2023/06/30 02:47:25;;;;;;;22.60;8.15;;;;;;;13.75;85.05;101041.31;4973850;28;20034;-57
2023/06/30 02:49:51;;;;;;;15.82;6.45;;;;;;;13.72;84.66;101044.44;4973491;28;20429;-58
2023/06/30 02:52:18;;;;;;;18.80;6.43;;;;;;;13.63;85.28;101035.84;4973710;28;20043;-58
2023/06/30 02:54:44;;;;;;;17.33;6.90;;;;;;;13.63;85.71;101026.94;4974118;28;20034;-58
2023/06/30 02:57:10;;;;;;;18.52;6.70;;;;;;;13.66;85.80;101045.34;4973796;28;20034;-57
2023/06/30 02:59:36;;;;;;;18.67;6.32;;;;;;;13.53;85.77;101046.25;4974096;28;20065;-57
2023/06/30 03:02:03;;;;;;;18.67;6.68;;;;;;;13.52;86.12;101057.25;4974596;28;20456;-57
2023/06/30 03:04:29;;;;;;;15.43;6.97;;;;;;;13.54;86.41;101060.53;4976832;28;20402;-57
2023/06/30 03:06:55;;;;;;;18.38;7.05;;;;;;;13.57;86.77;101060.91;4959994;28;20035;-57
2023/06/30 03:09:21;;;;;;;15.27;6.43;;;;;;;13.61;86.25;101048.69;4960035;28;20435;-57
2023/06/30 03:11:47;;;;;;;16.92;7.35;;;;;;;13.43;86.89;101048.63;4977200;28;20022;-58
2023/06/30 03:14:14;;;;;;;14.60;6.47;;;;;;;13.22;88.01;101044.47;4977225;28;20030;-57
2023/06/30 03:16:40;;;;;;;17.48;7.03;;;;;;;13.24;87.62;101053.13;4977244;28;20050;-57
2023/06/30 03:19:06;;;;;;;16.52;7.30;;;;;;;13.10;88.80;101043.47;4959754;28;20031;-58
2023/06/30 03:21:32;;;;;;;18.80;6.70;;;;;;;12.99;88.65;101046.84;4977074;28;20113;-57
2023/06/30 03:23:58;;;;;;;13.55;6.47;;;;;;;13.09;88.65;101049.88;4977021;28;20102;-58
2023/06/30 03:26:25;;;;;;;16.83;6.88;;;;;;;13.08;88.94;101050.94;4976858;28;20034;-58
2023/06/30 03:28:51;;;;;;;20.35;7.38;;;;;;;13.07;89.42;101058.16;4977079;28;20023;-58
2023/06/30 03:31:18;;;;;;;16.23;6.95;;;;;;;12.98;89.86;101054.09;4977048;28;20022;-57
2023/06/30 03:33:45;;;;;;;16.13;7.00;;;;;;;12.89;90.64;101056.22;4977149;28;20042;-57
2023/06/30 03:36:11;;;;;;;23.13;7.95;;;;;;;12.89;90.80;101056.22;4976864;28;20468;-57
2023/06/30 03:38:37;;;;;;;23.30;8.05;;;;;;;12.90;90.86;101057.03;4976749;28;20126;-58
2023/06/30 03:41:03;;;;;;;23.15;8.35;;;;;;;12.89;91.04;101056.22;4976516;28;20511;-58
2023/06/30 03:43:31;;;;;;;16.25;7.05;;;;;;;12.90;90.95;101054.34;4976367;28;20027;-58
2023/06/30 03:45:57;;;;;;;16.23;6.95;;;;;;;12.87;90.85;101050.22;4976641;28;20060;-58
2023/06/30 03:48:24;;;;;;;22.70;7.15;;;;;;;12.95;90.12;101052.66;4976688;28;20033;-58
2023/06/30 03:50:53;;;;;;;19.63;7.63;;;;;;;12.85;90.96;101049.63;4976524;28;20026;-58
2023/06/30 03:53:21;;;;;;;18.00;6.85;;;;;;;12.75;91.83;101051.94;4976562;28;20023;-57
2023/06/30 03:55:47;;;;;;;24.27;7.80;;;;;;;12.92;90.72;101047.72;4976453;28;20035;-58
2023/06/30 03:58:13;;;;;;;14.55;6.05;;;;;;;12.87;90.38;101052.91;4976372;28;20031;-58
2023/06/30 04:00:39;;;;;;;15.90;7.35;;;;;;;12.84;90.51;101060.59;4976327;28;20423;-58
2023/06/30 04:03:06;;;;;;;13.95;6.47;;;;;;;12.75;91.09;101062.69;4976349;28;20106;-58
2023/06/30 04:05:32;;;;;;;17.45;5.80;;;;;;;12.77;91.38;101052.59;4976254;28;20054;-58
2023/06/30 04:07:58;;;;;;;16.02;6.57;;;;;;;12.60;92.43;101068.38;4976199;28;20023;-58
2023/06/30 04:10:24;;;;;;;17.92;6.70;;;;;;;12.54;92.80;101073.75;4976207;28;20031;-58
2023/06/30 04:12:50;;;;;;;13.65;6.35;;;;;;;12.54;92.93;101068.38;4976119;28;20023;-58
2023/06/30 04:15:17;;;;;;;20.08;7.18;;;;;;;12.57;92.87;101067.97;4974942;28;20073;-58
2023/06/30 04:17:43;;;;;;;17.67;6.55;;;;;;;12.64;92.10;101079.50;4976064;28;20059;-58
2023/06/30 04:20:10;;;;;;;20.50;7.28;;;;;;;12.66;92.20;101080.13;4976059;28;20113;-58
2023/06/30 04:22:37;;;;;;;19.13;7.65;;;;;;;12.50;93.29;101075.22;4976214;28;20034;-58
2023/06/30 04:25:05;;;;;;;21.02;6.85;;;;;;;12.57;93.25;101071.47;4975808;28;20053;-58
2023/06/30 04:27:31;;;;;;;15.68;7.22;;;;;;;12.59;92.94;101073.94;4976127;28;20030;-58
2023/06/30 04:29:57;;;;;;;19.30;7.55;;;;;;;12.58;93.42;101081.16;4975736;28;20126;-58
2023/06/30 04:32:23;;;;;;;17.63;7.72;;;;;;;12.52;93.63;101081.19;4975733;28;20035;-58
2023/06/30 04:34:50;;;;;;;27.60;8.13;;;;;;;12.51;94.02;101074.19;4975760;28;20431;-58
2023/06/30 04:37:16;;;;;;;16.80;7.40;;;;;;;12.58;93.59;101077.66;4975876;28;20074;-58
2023/06/30 04:39:42;;;;;;;24.33;7.63;;;;;;;12.68;93.36;101081.53;4975665;28;20053;-58
2023/06/30 04:42:09;;;;;;;26.63;7.80;;;;;;;12.72;92.44;101083.81;4975929;28;20053;-58
2023/06/30 04:44:36;;;;;;;20.83;7.88;;;;;;;12.65;93.39;101073.91;4975638;28;20051;-58
2023/06/30 04:47:03;;;;;;;16.90;7.63;;;;;;;12.77;92.02;101076.75;4975840;28;20111;-58
2023/06/30 04:49:29;;;;;;;19.10;8.27;;;;;;;12.81;91.85;101077.94;4975443;28;20479;-58
2023/06/30 04:51:56;;;;;;;19.90;7.70;;;;;;;12.72;92.20;101073.06;4975298;28;20027;-58
2023/06/30 04:54:22;;;;;;;22.02;8.13;;;;;;;12.67;92.88;101085.25;4975632;28;20113;-58
2023/06/30 04:56:48;;;;;;;19.67;7.68;;;;;;;12.74;92.50;101087.09;4975247;28;20034;-58
2023/06/30 04:59:14;;;;;;;23.77;7.72;;;;;;;12.69;92.90;101082.34;4975300;28;20026;-58
2023/06/30 05:01:40;;;;;;;24.42;7.75;;;;;;;12.62;93.55;101090.44;4975504;28;20027;-58
2023/06/30 05:04:08;;;;;;;21.67;7.68;;;;;;;12.76;93.17;101093.88;4957851;28;20023;-58
2023/06/30 05:06:34;;;;;;;18.73;6.65;;;;;;;12.86;92.49;101086.19;4975092;28;20034;-58
2023/06/30 05:09:00;;;;;;;16.05;6.68;;;;;;;12.90;91.79;101095.47;4975133;28;20444;-57
2023/06/30 05:11:26;;;;;;;21.73;7.25;;;;;;;12.76;92.62;101087.69;4975465;28;20023;-58
2023/06/30 05:13:52;;;;;;;18.40;7.25;;;;;;;12.91;92.34;101098.97;4975313;28;20084;-57
2023/06/30 05:16:19;;;;;;;19.40;6.53;;;;;;;12.94;91.83;101094.00;4975281;28;20023;-58
2023/06/30 05:18:45;;;;;;;17.23;6.72;;;;;;;12.95;91.48;101090.28;4957572;28;20506;-57
2023/06/30 05:21:11;;;;;;;20.95;7.30;;;;;;;12.70;92.86;101084.00;4974795;28;20102;-57
2023/06/30 05:23:37;;;;;;;22.67;6.57;;;;;;;12.79;92.75;101098.84;4975164;28;20383;-57
2023/06/30 05:26:04;;;;;;;19.50;6.63;;;;;;;12.85;92.89;101095.28;4974244;28;20041;-57
2023/06/30 05:28:31;;;;;;;19.85;6.72;;;;;;;12.89;92.42;101104.59;4974969;28;20033;-58
2023/06/30 05:30:57;;;;;;;16.35;6.53;;;;;;;12.75;93.12;101102.16;4974705;28;20026;-58
2023/06/30 05:33:23;;;;;;;20.33;6.88;;;;;;;12.83;93.02;101107.31;4975057;28;20483;-57
2023/06/30 05:35:49;;;;;;;21.58;6.97;;;;;;;12.90;92.54;101108.09;4974636;28;20031;-58
2023/06/30 05:38:16;;;;;;;17.88;6.97;;;;;;;12.88;92.59;101100.25;4974605;28;20490;-59
2023/06/30 05:40:42;;;;;;;21.55;7.13;;;;;;;12.78;92.50;101107.13;4974467;28;20027;-58
2023/06/30 05:43:09;;;;;;;17.50;6.30;;;;;;;12.85;92.29;101103.34;4975226;28;20027;-58
2023/06/30 05:45:37;;;;;;;15.10;5.88;;;;;;;12.92;91.62;101109.50;4974299;28;20142;-58
2023/06/30 05:48:03;;;;;;;20.15;7.07;;;;;;;12.80;92.44;101103.16;4974366;28;20034;-58
2023/06/30 05:50:30;;;;;;;23.58;6.93;;;;;;;12.86;92.31;101107.69;4974406;28;20027;-58
2023/06/30 05:52:56;;;;;;;25.65;7.55;;;;;;;12.81;92.89;101109.38;4974364;28;20035;-59
2023/06/30 05:55:22;;;;;;;19.58;6.72;;;;;;;12.89;92.47;101095.69;4956986;28;20034;-58
2023/06/30 05:57:48;;;;;;;23.63;7.57;;;;;;;12.84;92.70;101104.41;4974453;28;20034;-58
2023/06/30 06:00:16;;;;;;;19.42;7.50;;;;;;;12.91;92.27;101102.50;4974189;28;20038;-58
2023/06/30 06:02:42;;;;;;;19.00;6.90;;;;;;;12.83;93.26;101104.63;4974292;28;20480;-58
2023/06/30 06:05:08;;;;;;;18.10;6.75;;;;;;;12.81;93.00;101098.63;4974527;28;20041;-59
2023/06/30 06:07:35;;;;;;;18.60;7.25;;;;;;;12.86;92.86;101106.88;4974182;28;20146;-60
2023/06/30 06:10:01;;;;;;;16.10;6.90;;;;;;;12.88;92.61;101099.41;4974242;28;20030;-58
2023/06/30 06:12:27;;;;;;;17.13;7.18;;;;;;;12.88;92.26;101097.56;4974526;28;20019;-59
2023/06/30 06:14:53;;;;;;;16.25;7.03;;;;;;;12.81;92.36;101102.13;4974198;28;20030;-59
2023/06/30 06:17:20;;;;;;;15.88;7.22;;;;;;;12.66;93.64;101105.09;4974028;28;20388;-59
2023/06/30 06:19:46;;;;;;;17.65;6.65;;;;;;;12.87;92.64;101108.50;4974304;28;20053;-59
2023/06/30 06:22:12;;;;;;;21.50;7.68;;;;;;;12.91;92.58;101098.97;4974450;28;20030;-59
2023/06/30 06:24:38;;;;;;;24.90;9.07;;;;;;;12.87;92.30;101095.91;4974322;28;20074;-59
2023/06/30 06:27:05;;;;;;;19.00;7.63;;;;;;;12.85;93.04;101113.28;4974175;28;20093;-58
2023/06/30 06:29:31;;;;;;;20.05;7.20;;;;;;;12.74;93.80;101106.72;4974254;28;20104;-59
2023/06/30 06:31:58;;;;;;;23.17;7.82;;;;;;;12.86;93.16;101098.81;4974315;28;20027;-59
2023/06/30 06:34:24;;;;;;;21.23;7.40;;;;;;;12.93;92.78;101104.97;4974244;28;20106;-59
2023/06/30 06:36:51;;;;;;;18.42;8.02;;;;;;;12.89;92.84;101103.75;4973984;28;20022;-59
2023/06/30 06:39:19;;;;;;;19.02;6.18;;;;;;;12.92;92.82;101100.63;4976895;28;20031;-59
2023/06/30 06:41:45;;;;;;;22.08;7.72;;;;;;;12.67;93.84;101101.38;4977834;28;20030;-58
2023/06/30 06:44:11;;;;;;;19.50;6.22;;;;;;;12.82;93.11;101103.78;4977512;28;20522;-59
2023/06/30 06:46:37;;;;;;;18.00;6.10;;;;;;;12.86;93.01;101115.75;4977707;28;20027;-58
2023/06/30 06:49:04;;;;;;;18.98;6.35;;;;;;;12.97;92.55;101116.09;4977629;28;20045;-58
2023/06/30 06:51:30;;;;;;;18.00;6.85;;;;;;;12.85;92.83;101111.41;4977829;28;20026;-58
2023/06/30 06:53:56;;;;;;;14.70;5.97;;;;;;;12.95;92.45;101114.47;4977578;28;20030;-58
2023/06/30 06:56:22;;;;;;;15.23;6.28;;;;;;;12.88;92.92;101121.75;4977493;28;20031;-58
2023/06/30 06:58:49;;;;;;;17.42;6.70;;;;;;;12.95;92.73;101114.47;4977388;28;20037;-58
2023/06/30 07:01:15;;;;;;;30.23;6.97;;;;;;;12.87;93.29;101116.56;4977684;28;20049;-58
2023/06/30 07:03:41;;;;;;;20.88;6.25;;;;;;;12.87;93.21;101109.31;4960181;28;20122;-58
2023/06/30 07:06:08;;;;;;;19.35;6.82;;;;;;;12.93;93.16;101116.53;4977184;28;20038;-59
2023/06/30 07:08:35;;;;;;;16.60;6.22;;;;;;;12.97;93.04;101116.94;4977569;28;20073;-59
2023/06/30 07:11:06;;;;;;;16.42;6.85;;;;;;;13.08;91.74;101107.38;4977527;28;20089;-58
2023/06/30 07:13:33;;;;;;;17.00;6.32;;;;;;;12.99;92.08;101114.84;4977246;28;20057;-59
2023/06/30 07:15:59;;;;;;;25.33;7.50;;;;;;;13.03;92.17;101115.25;4977222;28;20050;-59
2023/06/30 07:18:26;;;;;;;13.25;6.00;;;;;;;12.94;92.50;101120.06;4959740;28;20364;-59
2023/06/30 07:20:54;;;;;;;20.50;6.75;;;;;;;12.90;92.92;101110.78;4977152;28;20089;-59
2023/06/30 07:23:20;;;;;;;17.08;6.97;;;;;;;12.92;93.22;101108.69;4977081;28;20533;-59
2023/06/30 07:25:49;;;;;;;24.17;7.63;;;;;;;12.90;92.96;101103.53;4976850;28;20109;-58
2023/06/30 07:28:15;;;;;;;17.92;7.45;;;;;;;12.85;93.61;101108.72;4977052;28;20035;-59
2023/06/30 07:30:42;;;;;;;20.00;7.50;;;;;;;12.84;93.75;101114.31;4976877;28;20258;-59
2023/06/30 07:33:10;;;;;;;17.75;7.80;;;;;;;12.92;93.47;101114.06;4976892;28;20054;-59
2023/06/30 07:35:36;;;;;;;22.38;7.53;;;;;;;12.80;93.83;101103.16;4976857;28;20035;-59
2023/06/30 07:38:03;;;;;;;14.70;6.97;;;;;;;12.81;94.14;101099.44;4976881;28;20102;-59
2023/06/30 07:40:29;;;;;;;19.33;6.53;;;;;;;12.92;93.56;101106.81;4976959;28;20031;-58
2023/06/30 07:42:55;;;;;;;15.40;6.50;;;;;;;12.98;93.37;101104.31;4976600;28;20054;-58
2023/06/30 07:45:21;;;;;;;17.20;6.78;;;;;;;13.10;92.32;101102.59;4976420;28;20053;-58
2023/06/30 07:47:48;;;;;;;19.98;6.63;;;;;;;13.12;91.80;101095.97;4976761;28;20089;-58
2023/06/30 07:50:15;;;;;;;15.48;5.78;;;;;;;13.07;92.46;101094.97;4976414;28;20089;-58
2023/06/30 07:52:43;;;;;;;20.38;6.65;;;;;;;13.10;92.19;101095.38;4976535;28;20085;-58
2023/06/30 07:55:12;;;;;;;14.63;5.35;;;;;;;12.98;92.47;101094.38;4976518;28;20038;-58
2023/06/30 07:57:39;;;;;;;23.95;6.78;;;;;;;13.10;92.41;101091.84;4976335;28;20122;-58
2023/06/30 08:00:06;;;;;;;15.98;6.35;;;;;;;13.08;91.97;101092.06;4959060;28;20386;-58
2023/06/30 08:02:32;;;;;;;15.50;5.32;;;;;;;13.13;91.98;101086.03;4976455;28;20475;-59
2023/06/30 08:04:59;;;;;;;16.10;5.97;;;;;;;13.12;92.25;101092.47;4976281;28;20073;-59
2023/06/30 08:07:25;;;;;;;18.92;6.55;;;;;;;13.05;92.42;101095.19;4976421;28;20040;-58
2023/06/30 08:09:51;;;;;;;16.67;5.93;;;;;;;13.06;92.67;101093.34;4958903;28;20391;-58
2023/06/30 08:12:17;;;;;;;13.75;4.97;;;;;;;13.14;92.00;101101.13;4976277;28;20090;-58
2023/06/30 08:14:44;;;;;;;15.18;5.38;;;;;;;13.24;90.98;101093.44;4976133;28;20031;-59
2023/06/30 08:17:10;;;;;;;15.88;5.28;;;;;;;13.20;91.36;101089.50;4976643;28;20022;-59
2023/06/30 08:19:41;;;;;;;12.85;5.45;;;;;;;13.19;91.31;101087.84;4976675;28;20479;-58
2023/06/30 08:22:07;;;;;;;12.75;5.55;;;;;;;13.07;91.81;101084.22;4975953;28;20037;-59
2023/06/30 08:24:34;;;;;;;20.42;5.80;;;;;;;13.05;92.21;101099.75;4976720;28;20030;-59
2023/06/30 08:27:00;;;;;;;17.08;5.57;;;;;;;12.99;92.62;101097.91;4976077;28;20027;-58
2023/06/30 08:29:26;;;;;;;10.48;4.65;;;;;;;12.97;92.85;101098.13;4976142;28;20035;-59
2023/06/30 08:31:54;;;;;;;14.57;5.00;;;;;;;12.99;92.86;101100.59;4975779;28;20018;-58
2023/06/30 08:34:23;;;;;;;11.20;5.35;;;;;;;12.88;93.30;101094.88;4976146;28;20471;-58
2023/06/30 08:36:50;;;;;;;14.48;5.35;;;;;;;12.91;93.22;101101.66;4975643;28;20027;-59
2023/06/30 08:39:16;;;;;;;10.40;5.15;;;;;;;12.87;93.82;101101.25;4975984;28;20422;-59
2023/06/30 08:41:44;;;;;;;13.30;5.22;;;;;;;13.03;92.62;101088.38;4975795;28;20027;-59
2023/06/30 08:44:11;;;;;;;17.05;5.43;;;;;;;12.99;92.83;101084.47;4975794;28;20491;-59
2023/06/30 08:46:38;;;;;;;11.75;5.07;;;;;;;12.89;93.66;101093.00;4975471;28;20121;-59
2023/06/30 08:49:05;;;;;;;13.45;5.00;;;;;;;12.86;94.15;101099.63;4975472;28;20102;-58
2023/06/30 08:51:32;;;;;;;14.25;5.03;;;;;;;12.75;94.89;101094.94;4975386;28;20023;-59
2023/06/30 08:53:59;;;;;;;12.95;5.07;;;;;;;12.86;94.08;101094.25;4975302;28;20041;-59
2023/06/30 08:56:27;;;;;;;10.98;4.78;;;;;;;12.88;94.26;101089.50;4975621;28;20502;-59
2023/06/30 08:58:53;;;;;;;13.05;4.40;;;;;;;12.85;94.50;101091.78;4975590;28;20030;-59
2023/06/30 09:01:20;;;;;;;11.73;4.38;;;;;;;12.81;94.79;101077.94;4957208;28;20033;-59
2023/06/30 09:03:46;;;;;;;11.50;4.75;;;;;;;12.88;94.26;101075.22;4975176;28;20419;-59
2023/06/30 09:06:14;;;;;;;9.20;4.25;;;;;;;12.89;94.64;101083.09;4975085;28;20022;-59
2023/06/30 09:08:46;;;;;;;14.15;5.30;;;;;;;12.88;94.82;101072.53;4975201;28;20023;-58
2023/06/30 09:11:15;;;;;;;13.00;4.60;;;;;;;12.94;94.44;101075.22;4975125;28;20027;-58
2023/06/30 09:13:43;;;;;;;12.07;4.72;;;;;;;12.92;94.69;101069.22;4974993;28;20479;-59
2023/06/30 09:16:15;;;;;;;16.45;5.10;;;;;;;12.88;95.16;101069.84;4974894;28;20037;-58
2023/06/30 09:18:42;;;;;;;13.50;4.72;;;;;;;12.87;95.21;101068.22;4975224;28;20498;-59
2023/06/30 09:21:10;;;;;;;15.25;5.53;;;;;;;12.97;94.73;101057.00;4974931;28;20035;-58
2023/06/30 09:23:37;;;;;;;13.13;4.85;;;;;;;12.97;94.58;101051.63;4974781;28;20027;-59
2023/06/30 09:26:13;;;;;;;14.07;4.70;;;;;;;12.91;94.84;101064.88;4974842;28;20479;-58
2023/06/30 09:28:42;;;;;;;11.73;4.47;;;;;;;12.93;94.73;101070.84;4974668;28;20031;-59
2023/06/30 09:31:09;;;;;;;14.15;5.45;;;;;;;12.83;95.32;101069.69;4974882;28;20478;-59
2023/06/30 09:33:37;;;;;;;16.65;5.20;;;;;;;12.91;95.08;101056.81;4974780;28;20022;-58
2023/06/30 09:36:06;;;;;;;14.88;5.45;;;;;;;12.85;95.44;101057.69;4974597;28;20397;-59
2023/06/30 09:38:34;;;;;;;13.82;4.82;;;;;;;12.83;95.62;101049.03;4974622;28;20085;-58
2023/06/30 09:41:05;;;;;;;14.57;5.00;;;;;;;12.90;95.31;101054.34;4974539;28;20031;-58
2023/06/30 09:43:32;;;;;;;11.32;5.32;;;;;;;12.85;95.00;101060.38;4974404;28;20019;-59
2023/06/30 09:46:00;;;;;;;16.67;6.15;;;;;;;12.81;95.70;101052.97;4974501;28;20050;-58
2023/06/30 09:48:35;;;;;;;13.75;5.20;;;;;;;12.84;95.58;101039.09;4974396;28;20042;-59
2023/06/30 09:51:01;;;;;;;;;;;;;;;12.99;94.83;101044.16;4975191;28;20050;-58
2023/06/30 09:53:38;;;;;;;13.27;4.38;;;;;;;12.91;95.00;101047.94;4974559;28;19922;-58
2023/06/30 09:56:04;;;;;;;15.00;6.05;;;;;;;12.87;95.37;101036.78;4974418;28;20035;-58
2023/06/30 09:58:31;;;;;;;20.00;5.45;;;;;;;12.90;95.06;101051.66;4974514;28;20031;-58
2023/06/30 10:00:58;;;;;;;13.38;4.70;;;;;;;12.96;94.99;101053.50;4974448;28;20030;-59
2023/06/30 10:03:24;;;;;;;14.65;5.20;;;;;;;12.88;95.43;101051.03;4974504;28;20038;-58
2023/06/30 10:05:53;;;;;;;13.05;5.35;;;;;;;13.04;94.49;101041.66;4974347;28;20034;-58
2023/06/30 10:08:22;;;;;;;13.43;4.60;;;;;;;12.93;94.43;101052.03;4974504;28;20046;-58
2023/06/30 10:10:51;;;;;;;10.95;4.57;;;;;;;12.95;94.19;101055.34;4974241;28;20029;-59
2023/06/30 10:13:18;;;;;;;12.05;4.53;;;;;;;13.04;94.00;101047.03;4974078;28;20110;-58
2023/06/30 10:15:45;;;;;;;9.55;4.63;;;;;;;13.05;93.40;101054.06;4974220;28;20058;-59
2023/06/30 10:18:15;;;;;;;8.20;4.18;;;;;;;13.00;93.16;101051.22;4974479;28;20439;-58
2023/06/30 10:20:41;;;;;;;9.82;4.40;;;;;;;12.95;93.52;101052.66;4974110;28;20065;-59
2023/06/30 10:23:08;;;;;;;9.07;4.45;;;;;;;13.04;93.29;101047.03;4974143;28;20371;-58
2023/06/30 10:25:37;;;;;;;8.60;4.00;;;;;;;12.90;94.25;101049.81;4974028;28;20026;-59
2023/06/30 10:28:06;;;;;;;15.80;4.78;;;;;;;12.93;93.76;101057.41;4973939;28;20037;-58
2023/06/30 10:30:33;;;;;;;15.32;5.28;;;;;;;12.87;93.97;101058.28;4974108;28;20023;-59
2023/06/30 10:33:00;;;;;;;8.77;4.82;;;;;;;12.99;93.89;101055.72;4974023;28;20069;-58
2023/06/30 10:35:27;;;;;;;8.60;4.10;;;;;;;12.99;93.43;101039.59;4973904;28;20054;-59
2023/06/30 10:37:55;;;;;;;10.60;3.60;;;;;;;13.07;92.97;101046.59;4974461;28;20034;-59
2023/06/30 10:40:27;;;;;;;10.07;4.10;;;;;;;13.10;92.66;101048.84;4973981;28;20054;-59
2023/06/30 10:42:55;;;;;;;11.43;5.13;;;;;;;13.06;92.84;101050.34;4974027;28;20102;-59
2023/06/30 10:45:28;;;;;;;8.57;4.20;;;;;;;13.14;92.67;101050.06;4973893;28;20054;-58
2023/06/30 10:47:55;;;;;;;10.02;4.32;;;;;;;13.04;93.06;101041.66;4973802;28;20133;-59
2023/06/30 10:50:23;;;;;;;8.75;4.13;;;;;;;13.05;93.25;101037.94;4973875;28;20136;-59
2023/06/30 10:52:54;;;;;;;9.45;4.57;;;;;;;13.04;93.15;101044.34;4973813;28;20050;-59
2023/06/30 10:55:27;;;;;;;5.93;3.92;;;;;;;12.90;93.79;101044.44;4973822;28;20023;-59
2023/06/30 10:57:54;;;;;;;11.25;4.65;;;;;;;13.07;93.03;101030.47;4973847;28;20121;-58
2023/06/30 11:00:25;;;;;;;9.20;4.50;;;;;;;13.06;93.05;101039.59;4973667;28;20023;-58
2023/06/30 11:02:57;;;;;;;10.02;4.43;;;;;;;13.06;92.89;101044.97;4973759;28;20379;-59
2023/06/30 11:05:26;;;;;;;8.60;4.57;;;;;;;13.11;92.69;101040.56;4973902;28;20030;-59
2023/06/30 11:08:06;;;;;;;17.75;5.80;;;;;;;12.82;94.59;101044.66;4973975;28;20054;-58
2023/06/30 11:10:32;;;;;;;10.43;5.53;;;;;;;12.87;94.59;101052.09;4973576;28;20495;-58
2023/06/30 11:13:00;;;;;;;11.73;5.30;;;;;;;12.95;94.47;101049.16;4973652;28;20037;-59
2023/06/30 11:15:40;;;;;;;13.32;5.38;;;;;;;12.89;94.55;101048.16;4973679;28;20039;-58
2023/06/30 11:18:18;;;;;;;8.60;5.15;;;;;;;12.97;94.31;101046.25;4973930;28;20037;-58
2023/06/30 11:21:05;;;;;;;9.43;5.25;;;;;;;12.69;95.87;101050.94;4973648;28;20031;-58